createdAt,value
2018-12-19T00:00:01.883Z,88.43
2018-12-19T00:05:04.274Z,87.93
2018-12-19T00:10:08.774Z,87.84
2018-12-19T00:15:11.037Z,87.86
2018-12-19T00:20:13.344Z,88.00
2018-12-19T00:25:15.771Z,88.26
2018-12-19T00:30:20.193Z,88.58
2018-12-19T00:35:24.538Z,88.26
2018-12-19T00:40:26.783Z,88.74
2018-12-19T00:45:29.151Z,88.73
2018-12-19T00:50:31.413Z,88.32
2018-12-19T00:55:33.740Z,88.31
2018-12-19T01:00:36.013Z,88.61
2018-12-19T01:05:38.354Z,87.92
2018-12-19T01:10:41.874Z,88.26
2018-12-19T01:15:44.234Z,88.39
2018-12-19T01:20:46.563Z,87.96
2018-12-19T01:25:48.923Z,87.51
2018-12-19T01:30:51.181Z,87.37
2018-12-19T01:35:53.454Z,87.41
2018-12-19T01:40:55.747Z,86.95
2018-12-19T01:45:58.111Z,86.92
2018-12-19T01:51:00.851Z,87.36
2018-12-19T01:56:03.393Z,87.33
2018-12-19T02:01:05.835Z,86.48
2018-12-19T02:06:08.250Z,86.90
2018-12-19T02:11:10.552Z,87.05
2018-12-19T02:16:12.851Z,87.30
2018-12-19T02:21:15.238Z,86.64
2018-12-19T02:26:17.697Z,87.03
2018-12-19T02:31:20.007Z,86.77
2018-12-19T02:36:22.258Z,86.15
2018-12-19T02:41:24.588Z,86.40
2018-12-19T02:46:26.858Z,86.60
2018-12-19T02:51:29.125Z,85.80
2018-12-19T02:56:31.421Z,86.69
2018-12-19T03:01:33.693Z,86.92
2018-12-19T03:06:35.996Z,87.15
2018-12-19T03:11:38.251Z,86.15
2018-12-19T03:16:40.547Z,86.12
2018-12-19T03:21:42.796Z,86.48
2018-12-19T03:26:45.322Z,84.59
2018-12-19T03:31:47.578Z,85.25
2018-12-19T03:36:49.869Z,85.74
2018-12-19T03:41:52.264Z,85.15
2018-12-19T03:46:54.599Z,85.48
2018-12-19T03:51:56.887Z,84.65
2018-12-19T03:56:59.580Z,83.93
2018-12-19T04:02:01.876Z,82.83
2018-12-19T04:07:04.153Z,83.06
2018-12-19T04:12:06.443Z,82.23
2018-12-19T04:17:08.723Z,83.19
2018-12-19T04:22:11.059Z,82.84
2018-12-19T04:27:13.405Z,83.57
2018-12-19T04:32:15.682Z,82.59
2018-12-19T04:37:17.928Z,81.76
2018-12-19T04:42:20.500Z,81.29
2018-12-19T04:47:22.759Z,80.86
2018-12-19T04:52:25.079Z,81.85
2018-12-19T04:57:27.379Z,82.08
2018-12-19T05:02:29.879Z,82.13
2018-12-19T05:07:32.409Z,82.08
2018-12-19T05:12:34.768Z,82.00
2018-12-19T05:17:37.060Z,82.45
2018-12-19T05:22:39.341Z,82.54
2018-12-19T05:27:41.666Z,81.69
2018-12-19T05:32:43.977Z,81.25
2018-12-19T05:37:46.338Z,80.81
2018-12-19T05:42:48.596Z,80.67
2018-12-19T05:47:50.855Z,80.62
2018-12-19T05:52:53.129Z,81.09
2018-12-19T05:57:55.448Z,80.89
2018-12-19T06:02:57.741Z,80.42
2018-12-19T06:08:00.005Z,80.54
2018-12-19T06:13:02.248Z,80.56
2018-12-19T06:18:04.535Z,79.07
2018-12-19T06:23:06.982Z,78.88
2018-12-19T06:28:09.325Z,78.26
2018-12-19T06:33:11.601Z,78.05
2018-12-19T06:38:14.109Z,79.04
2018-12-19T06:43:16.456Z,76.74
2018-12-19T06:48:18.882Z,78.04
2018-12-19T06:53:21.233Z,79.00
2018-12-19T06:58:23.574Z,78.04
2018-12-19T07:03:25.849Z,79.46
2018-12-19T07:08:28.159Z,79.37
2018-12-19T07:13:30.480Z,76.85
2018-12-19T07:18:33.205Z,77.63
2018-12-19T07:23:35.642Z,77.73
2018-12-19T07:28:37.941Z,77.96
2018-12-19T07:33:40.277Z,78.35
2018-12-19T07:38:42.542Z,76.58
2018-12-19T07:43:44.813Z,77.01
2018-12-19T07:48:47.245Z,77.31
2018-12-19T07:53:49.516Z,77.24
2018-12-19T07:58:51.887Z,77.55
2018-12-19T08:03:54.150Z,77.36
2018-12-19T08:08:56.417Z,77.54
2018-12-19T08:13:58.759Z,77.82
2018-12-19T08:19:01.048Z,77.59
2018-12-19T08:24:03.324Z,76.98
2018-12-19T08:29:05.715Z,76.90
2018-12-19T08:34:08.444Z,77.89
2018-12-19T08:39:10.733Z,76.98
2018-12-19T08:44:13.003Z,77.01
2018-12-19T08:49:15.268Z,77.36
2018-12-19T08:54:17.511Z,75.97
2018-12-19T08:59:19.825Z,74.76
2018-12-19T09:04:25.775Z,76.71
2018-12-19T09:09:26.472Z,75.18
2018-12-19T09:14:28.820Z,74.50
2018-12-19T09:19:31.244Z,74.37
2018-12-19T09:24:33.636Z,74.53
2018-12-19T09:29:36.200Z,73.81
2018-12-19T09:34:38.462Z,73.36
2018-12-19T09:39:40.726Z,73.56
2018-12-19T09:44:43.124Z,73.73
2018-12-19T09:49:45.414Z,72.74
2018-12-19T09:54:47.687Z,73.00
2018-12-19T09:59:50.000Z,73.38
2018-12-19T10:04:52.376Z,73.43
2018-12-19T10:09:54.901Z,73.01
2018-12-19T10:14:57.191Z,73.20
2018-12-19T10:19:59.699Z,72.50
2018-12-19T10:25:07.886Z,72.59
2018-12-19T10:30:13.088Z,72.48
2018-12-19T10:35:15.369Z,72.33
2018-12-19T10:40:17.653Z,71.86
2018-12-19T10:45:19.931Z,72.81
2018-12-19T10:50:22.217Z,72.64
2018-12-19T10:55:24.624Z,74.78
2018-12-19T11:00:32.750Z,75.70
2018-12-19T11:05:35.016Z,76.50
2018-12-19T11:10:37.301Z,78.27
2018-12-19T11:15:39.675Z,78.39
2018-12-19T11:20:41.959Z,78.82
2018-12-19T11:25:44.277Z,79.88
2018-12-19T11:30:46.622Z,80.06
2018-12-19T11:35:48.901Z,81.78
2018-12-19T11:40:51.172Z,81.19
2018-12-19T11:45:53.503Z,81.74
2018-12-19T11:50:55.790Z,82.97
2018-12-19T11:55:59.205Z,82.69
2018-12-19T12:01:01.780Z,84.33
2018-12-19T12:06:05.229Z,83.69
2018-12-19T12:11:07.649Z,84.54
2018-12-19T12:16:09.957Z,84.13
2018-12-19T12:21:12.246Z,85.44
2018-12-19T12:26:14.572Z,85.63
2018-12-19T12:31:16.943Z,85.38
2018-12-19T12:36:19.645Z,85.80
2018-12-19T12:41:21.901Z,85.73
2018-12-19T12:46:24.169Z,85.66
2018-12-19T12:51:26.461Z,87.03
2018-12-19T12:56:28.998Z,87.04
2018-12-19T13:01:31.328Z,86.33
2018-12-19T13:06:33.622Z,87.46
2018-12-19T13:11:36.121Z,87.38
2018-12-19T13:16:38.415Z,88.34
2018-12-19T13:21:40.802Z,88.21
2018-12-19T13:26:44.167Z,89.01
2018-12-19T13:31:46.842Z,89.32
2018-12-19T13:36:49.103Z,89.89
2018-12-19T13:41:51.388Z,89.90
2018-12-19T13:46:54.017Z,90.17
2018-12-19T13:51:56.343Z,90.17
2018-12-19T13:56:58.630Z,89.65
2018-12-19T14:02:01.036Z,89.47
2018-12-19T14:07:04.073Z,89.41
2018-12-19T14:12:12.162Z,89.71
2018-12-19T14:17:10.836Z,89.92
2018-12-19T14:22:30.071Z,89.27
2018-12-19T14:27:32.499Z,89.41
2018-12-19T14:32:34.797Z,89.86
2018-12-19T14:37:37.109Z,89.24
2018-12-19T14:42:39.385Z,89.05
2018-12-19T14:47:41.728Z,89.52
2018-12-19T14:52:44.693Z,89.43
2018-12-19T14:57:46.995Z,89.48
2018-12-19T15:02:49.761Z,89.25
2018-12-19T15:07:52.152Z,89.43
2018-12-19T15:12:55.649Z,88.58
2018-12-19T15:17:59.295Z,89.14
2018-12-19T15:23:01.563Z,89.63
2018-12-19T15:28:03.868Z,89.65
2018-12-19T15:33:06.217Z,89.20
2018-12-19T15:38:09.664Z,89.20
2018-12-19T15:43:11.918Z,89.40
2018-12-19T15:48:14.203Z,88.67
2018-12-19T15:53:16.576Z,89.96
2018-12-19T15:58:18.901Z,89.37
2018-12-19T16:03:21.782Z,89.94
2018-12-19T16:08:24.107Z,90.49
2018-12-19T16:13:26.474Z,90.02
2018-12-19T16:18:28.773Z,88.87
2018-12-19T16:23:31.053Z,89.51
2018-12-19T16:28:33.360Z,88.75
2018-12-19T16:33:35.669Z,89.70
2018-12-19T16:38:37.985Z,89.58
2018-12-19T16:43:40.243Z,89.49
2018-12-19T16:48:43.566Z,89.59
2018-12-19T16:53:45.953Z,89.11
2018-12-19T16:58:48.317Z,88.81
2018-12-19T17:03:50.610Z,89.18
2018-12-19T17:08:53.026Z,90.11
2018-12-19T17:13:55.423Z,90.08
2018-12-19T17:18:57.725Z,89.77
2018-12-19T17:24:00.010Z,89.76
2018-12-19T17:29:02.337Z,89.94
2018-12-19T17:34:04.821Z,90.40
2018-12-19T17:39:07.297Z,89.93
2018-12-19T17:44:11.673Z,89.96
2018-12-19T17:49:14.134Z,89.96
2018-12-19T17:54:16.472Z,90.18
2018-12-19T17:59:18.757Z,89.90
2018-12-19T18:04:21.218Z,90.16
2018-12-19T18:09:23.707Z,90.25
2018-12-19T18:14:26.134Z,89.92
2018-12-19T18:19:29.057Z,90.80
2018-12-19T18:24:31.415Z,90.33
2018-12-19T18:29:33.717Z,90.22
2018-12-19T18:34:36.289Z,90.89
2018-12-19T18:39:38.662Z,89.79
2018-12-19T18:44:41.020Z,90.63
2018-12-19T18:50:27.896Z,90.79
2018-12-19T18:55:30.281Z,90.90
2018-12-19T19:00:35.893Z,90.76
2018-12-19T19:05:39.410Z,90.92
2018-12-19T19:10:41.902Z,90.99
2018-12-19T19:15:44.369Z,90.04
2018-12-19T19:20:46.739Z,90.37
2018-12-19T19:25:50.205Z,90.26
2018-12-19T19:30:52.936Z,90.63
2018-12-19T19:35:55.437Z,91.38
2018-12-19T19:40:59.581Z,90.79
2018-12-19T19:46:03.232Z,91.31
2018-12-19T19:51:05.918Z,90.83
2018-12-19T19:56:08.222Z,91.50
2018-12-19T20:01:10.464Z,91.22
2018-12-19T20:06:13.977Z,91.59
2018-12-19T20:11:17.884Z,91.78
2018-12-19T20:16:20.313Z,91.28
2018-12-19T20:21:22.603Z,92.00
2018-12-19T20:26:24.997Z,90.73
2018-12-19T20:31:27.508Z,91.04
2018-12-19T20:36:29.830Z,91.60
2018-12-19T20:41:32.249Z,91.93
2018-12-19T20:46:35.331Z,91.55
2018-12-19T20:51:43.073Z,91.57
2018-12-19T20:56:46.037Z,91.37
2018-12-19T21:01:48.437Z,91.43
2018-12-19T21:06:50.769Z,91.28
2018-12-19T21:11:53.145Z,91.54
2018-12-19T21:17:01.285Z,91.92
2018-12-19T21:22:06.169Z,91.78
2018-12-19T21:27:08.733Z,91.94
2018-12-19T21:32:11.097Z,92.11
2018-12-19T21:37:13.516Z,91.93
2018-12-19T21:42:15.928Z,91.60
2018-12-19T21:47:18.607Z,91.56
2018-12-19T21:52:20.968Z,91.93
2018-12-19T21:57:23.596Z,91.93
2018-12-19T22:02:25.922Z,91.43
2018-12-19T22:07:28.322Z,91.65
2018-12-19T22:12:31.262Z,91.89
2018-12-19T22:17:39.381Z,91.73
2018-12-19T22:22:41.855Z,91.29
2018-12-19T22:27:44.240Z,90.71
2018-12-19T22:32:46.604Z,91.01
2018-12-19T22:37:49.133Z,91.57
2018-12-19T22:42:51.660Z,90.95
2018-12-19T22:47:54.016Z,90.34
2018-12-19T22:52:56.379Z,90.34
2018-12-19T22:57:58.847Z,90.89
2018-12-19T23:03:07.497Z,90.16
2018-12-19T23:08:10.918Z,89.89
2018-12-19T23:13:13.566Z,90.32
2018-12-19T23:18:23.605Z,90.03
2018-12-19T23:23:32.204Z,89.58
2018-12-19T23:28:40.535Z,89.24
2018-12-19T23:33:42.822Z,90.47
2018-12-19T23:38:45.286Z,90.24
2018-12-19T23:43:47.753Z,89.70
2018-12-19T23:48:50.116Z,89.72
2018-12-19T23:53:52.464Z,89.63
2018-12-19T23:58:54.956Z,90.33
